sensor_id;sensor_type;location;lat;lon;timestamp;P1;durP1;ratioP1;P2;durP2;ratioP2
35312;SDS011;21425;50.454;30.466;2023-12-14T00:02:06;28.20;;;10.75;;
35312;SDS011;21425;50.454;30.466;2023-12-14T00:04:32;27.00;;;10.60;;
35312;SDS011;21425;50.454;30.466;2023-12-14T00:06:58;28.33;;;12.60;;
35312;SDS011;21425;50.454;30.466;2023-12-14T00:09:24;33.80;;;13.10;;
35312;SDS011;21425;50.454;30.466;2023-12-14T00:11:50;28.45;;;10.77;;
35312;SDS011;21425;50.454;30.466;2023-12-14T00:14:16;31.02;;;13.10;;
35312;SDS011;21425;50.454;30.466;2023-12-14T00:16:42;28.77;;;11.20;;
35312;SDS011;21425;50.454;30.466;2023-12-14T00:19:08;31.38;;;13.07;;
35312;SDS011;21425;50.454;30.466;2023-12-14T00:21:33;32.47;;;11.98;;
35312;SDS011;21425;50.454;30.466;2023-12-14T00:23:59;27.15;;;11.27;;
35312;SDS011;21425;50.454;30.466;2023-12-14T00:26:25;30.52;;;13.10;;
35312;SDS011;21425;50.454;30.466;2023-12-14T00:28:51;25.73;;;11.85;;
35312;SDS011;21425;50.454;30.466;2023-12-14T00:31:16;26.77;;;11.20;;
35312;SDS011;21425;50.454;30.466;2023-12-14T00:33:43;27.40;;;10.68;;
35312;SDS011;21425;50.454;30.466;2023-12-14T00:36:09;26.10;;;10.27;;
35312;SDS011;21425;50.454;30.466;2023-12-14T00:38:35;28.38;;;10.90;;
35312;SDS011;21425;50.454;30.466;2023-12-14T00:41:01;25.38;;;10.00;;
35312;SDS011;21425;50.454;30.466;2023-12-14T00:43:27;24.60;;;10.43;;
35312;SDS011;21425;50.454;30.466;2023-12-14T00:45:53;22.90;;;10.15;;
35312;SDS011;21425;50.454;30.466;2023-12-14T00:48:19;22.55;;;9.73;;
35312;SDS011;21425;50.454;30.466;2023-12-14T00:50:44;22.85;;;10.32;;
35312;SDS011;21425;50.454;30.466;2023-12-14T00:53:10;23.95;;;11.52;;
35312;SDS011;21425;50.454;30.466;2023-12-14T00:55:36;23.05;;;10.85;;
35312;SDS011;21425;50.454;30.466;2023-12-14T00:58:02;23.63;;;11.13;;
35312;SDS011;21425;50.454;30.466;2023-12-14T01:00:28;26.80;;;11.38;;
35312;SDS011;21425;50.454;30.466;2023-12-14T01:02:55;24.90;;;10.60;;
35312;SDS011;21425;50.454;30.466;2023-12-14T01:05:21;22.67;;;10.65;;
35312;SDS011;21425;50.454;30.466;2023-12-14T01:07:46;21.85;;;10.73;;
35312;SDS011;21425;50.454;30.466;2023-12-14T01:10:13;22.35;;;9.48;;
35312;SDS011;21425;50.454;30.466;2023-12-14T01:12:38;20.08;;;10.00;;
35312;SDS011;21425;50.454;30.466;2023-12-14T01:15:04;22.08;;;9.85;;
35312;SDS011;21425;50.454;30.466;2023-12-14T01:17:31;19.27;;;8.10;;
35312;SDS011;21425;50.454;30.466;2023-12-14T01:19:56;18.75;;;8.07;;
35312;SDS011;21425;50.454;30.466;2023-12-14T01:22:22;23.63;;;10.02;;
35312;SDS011;21425;50.454;30.466;2023-12-14T01:24:47;20.00;;;9.48;;
35312;SDS011;21425;50.454;30.466;2023-12-14T01:27:13;22.73;;;9.52;;
35312;SDS011;21425;50.454;30.466;2023-12-14T01:29:39;23.90;;;10.07;;
35312;SDS011;21425;50.454;30.466;2023-12-14T01:32:05;19.88;;;9.65;;
35312;SDS011;21425;50.454;30.466;2023-12-14T01:34:31;19.88;;;9.40;;
35312;SDS011;21425;50.454;30.466;2023-12-14T01:36:57;24.10;;;10.88;;
35312;SDS011;21425;50.454;30.466;2023-12-14T01:39:23;24.52;;;10.40;;
35312;SDS011;21425;50.454;30.466;2023-12-14T01:41:49;21.08;;;9.13;;
35312;SDS011;21425;50.454;30.466;2023-12-14T01:44:14;20.48;;;9.88;;
35312;SDS011;21425;50.454;30.466;2023-12-14T01:46:40;20.95;;;10.05;;
35312;SDS011;21425;50.454;30.466;2023-12-14T01:49:06;19.75;;;8.82;;
35312;SDS011;21425;50.454;30.466;2023-12-14T01:51:32;16.30;;;8.02;;
35312;SDS011;21425;50.454;30.466;2023-12-14T01:53:58;19.17;;;9.35;;
35312;SDS011;21425;50.454;30.466;2023-12-14T01:56:24;15.73;;;7.45;;
35312;SDS011;21425;50.454;30.466;2023-12-14T01:58:50;19.38;;;8.93;;
35312;SDS011;21425;50.454;30.466;2023-12-14T02:04:12;18.95;;;9.90;;
35312;SDS011;21425;50.454;30.466;2023-12-14T02:06:39;17.20;;;6.82;;
35312;SDS011;21425;50.454;30.466;2023-12-14T02:09:06;15.65;;;8.32;;
35312;SDS011;21425;50.454;30.466;2023-12-14T02:11:32;15.38;;;7.53;;
35312;SDS011;21425;50.454;30.466;2023-12-14T02:14:02;15.63;;;8.13;;
35312;SDS011;21425;50.454;30.466;2023-12-14T02:16:29;17.60;;;8.35;;
35312;SDS011;21425;50.454;30.466;2023-12-14T02:18:56;17.00;;;7.13;;
35312;SDS011;21425;50.454;30.466;2023-12-14T02:21:22;17.00;;;7.95;;
35312;SDS011;21425;50.454;30.466;2023-12-14T02:23:48;19.35;;;8.75;;
35312;SDS011;21425;50.454;30.466;2023-12-14T02:26:14;17.17;;;8.02;;
35312;SDS011;21425;50.454;30.466;2023-12-14T02:28:40;14.25;;;6.63;;
35312;SDS011;21425;50.454;30.466;2023-12-14T02:31:06;13.82;;;7.13;;
35312;SDS011;21425;50.454;30.466;2023-12-14T02:33:32;13.88;;;7.05;;
35312;SDS011;21425;50.454;30.466;2023-12-14T02:35:59;11.82;;;6.15;;
35312;SDS011;21425;50.454;30.466;2023-12-14T02:38:25;13.23;;;6.45;;
35312;SDS011;21425;50.454;30.466;2023-12-14T02:40:50;13.65;;;6.25;;
35312;SDS011;21425;50.454;30.466;2023-12-14T02:43:17;12.07;;;5.88;;
35312;SDS011;21425;50.454;30.466;2023-12-14T02:45:46;12.80;;;5.85;;
35312;SDS011;21425;50.454;30.466;2023-12-14T02:48:12;11.55;;;5.88;;
35312;SDS011;21425;50.454;30.466;2023-12-14T02:50:37;13.20;;;6.05;;
35312;SDS011;21425;50.454;30.466;2023-12-14T02:53:03;9.77;;;5.28;;
35312;SDS011;21425;50.454;30.466;2023-12-14T02:55:29;10.75;;;5.32;;
35312;SDS011;21425;50.454;30.466;2023-12-14T02:57:55;14.50;;;7.07;;
35312;SDS011;21425;50.454;30.466;2023-12-14T03:00:21;14.52;;;6.40;;
35312;SDS011;21425;50.454;30.466;2023-12-14T03:02:47;11.85;;;6.00;;
35312;SDS011;21425;50.454;30.466;2023-12-14T03:05:14;11.77;;;6.40;;
35312;SDS011;21425;50.454;30.466;2023-12-14T03:07:39;13.52;;;6.07;;
35312;SDS011;21425;50.454;30.466;2023-12-14T03:10:06;10.65;;;5.60;;
35312;SDS011;21425;50.454;30.466;2023-12-14T03:12:32;14.35;;;6.00;;
35312;SDS011;21425;50.454;30.466;2023-12-14T03:14:58;10.77;;;5.22;;
35312;SDS011;21425;50.454;30.466;2023-12-14T03:17:23;12.82;;;5.97;;
35312;SDS011;21425;50.454;30.466;2023-12-14T03:19:49;16.27;;;6.80;;
35312;SDS011;21425;50.454;30.466;2023-12-14T03:22:15;16.17;;;6.82;;
35312;SDS011;21425;50.454;30.466;2023-12-14T03:24:41;17.35;;;7.20;;
35312;SDS011;21425;50.454;30.466;2023-12-14T03:27:08;14.40;;;6.15;;
35312;SDS011;21425;50.454;30.466;2023-12-14T03:29:34;13.10;;;6.50;;
35312;SDS011;21425;50.454;30.466;2023-12-14T03:32:00;16.08;;;7.20;;
35312;SDS011;21425;50.454;30.466;2023-12-14T03:34:26;13.18;;;6.07;;
35312;SDS011;21425;50.454;30.466;2023-12-14T03:36:52;20.95;;;7.70;;
35312;SDS011;21425;50.454;30.466;2023-12-14T03:39:18;15.38;;;8.00;;
35312;SDS011;21425;50.454;30.466;2023-12-14T03:41:43;14.70;;;7.00;;
35312;SDS011;21425;50.454;30.466;2023-12-14T03:44:10;12.88;;;7.00;;
35312;SDS011;21425;50.454;30.466;2023-12-14T03:46:36;17.33;;;7.20;;
35312;SDS011;21425;50.454;30.466;2023-12-14T03:49:02;17.23;;;7.22;;
35312;SDS011;21425;50.454;30.466;2023-12-14T03:51:29;14.77;;;6.53;;
35312;SDS011;21425;50.454;30.466;2023-12-14T03:53:55;14.82;;;7.40;;
35312;SDS011;21425;50.454;30.466;2023-12-14T03:56:21;14.73;;;6.78;;
35312;SDS011;21425;50.454;30.466;2023-12-14T03:58:47;14.07;;;6.90;;
35312;SDS011;21425;50.454;30.466;2023-12-14T04:01:19;14.85;;;6.53;;
35312;SDS011;21425;50.454;30.466;2023-12-14T04:03:46;14.90;;;6.68;;
35312;SDS011;21425;50.454;30.466;2023-12-14T04:06:12;13.68;;;6.25;;
35312;SDS011;21425;50.454;30.466;2023-12-14T04:08:38;13.88;;;6.93;;
35312;SDS011;21425;50.454;30.466;2023-12-14T04:11:05;15.07;;;6.75;;
35312;SDS011;21425;50.454;30.466;2023-12-14T04:13:31;14.00;;;6.65;;
35312;SDS011;21425;50.454;30.466;2023-12-14T04:15:57;12.82;;;6.32;;
35312;SDS011;21425;50.454;30.466;2023-12-14T04:18:23;13.38;;;6.07;;
35312;SDS011;21425;50.454;30.466;2023-12-14T04:20:49;15.38;;;6.63;;
35312;SDS011;21425;50.454;30.466;2023-12-14T04:23:15;13.50;;;7.10;;
35312;SDS011;21425;50.454;30.466;2023-12-14T04:25:41;12.23;;;6.07;;
35312;SDS011;21425;50.454;30.466;2023-12-14T04:28:07;13.48;;;6.38;;
35312;SDS011;21425;50.454;30.466;2023-12-14T04:30:33;11.30;;;5.88;;
35312;SDS011;21425;50.454;30.466;2023-12-14T04:32:59;13.63;;;7.22;;
35312;SDS011;21425;50.454;30.466;2023-12-14T04:35:25;11.18;;;5.63;;
35312;SDS011;21425;50.454;30.466;2023-12-14T04:37:50;14.40;;;7.30;;
35312;SDS011;21425;50.454;30.466;2023-12-14T04:40:16;14.98;;;6.43;;
35312;SDS011;21425;50.454;30.466;2023-12-14T04:42:42;15.13;;;7.20;;
35312;SDS011;21425;50.454;30.466;2023-12-14T04:45:08;16.50;;;6.95;;
35312;SDS011;21425;50.454;30.466;2023-12-14T04:47:34;13.18;;;6.20;;
35312;SDS011;21425;50.454;30.466;2023-12-14T04:50:01;15.13;;;6.90;;
35312;SDS011;21425;50.454;30.466;2023-12-14T04:52:27;15.55;;;6.95;;
35312;SDS011;21425;50.454;30.466;2023-12-14T04:54:53;12.18;;;6.68;;
35312;SDS011;21425;50.454;30.466;2023-12-14T04:57:19;14.45;;;7.10;;
35312;SDS011;21425;50.454;30.466;2023-12-14T04:59:45;13.15;;;6.63;;
35312;SDS011;21425;50.454;30.466;2023-12-14T05:02:10;14.27;;;6.82;;
35312;SDS011;21425;50.454;30.466;2023-12-14T05:04:36;17.63;;;9.18;;
35312;SDS011;21425;50.454;30.466;2023-12-14T05:07:02;19.52;;;8.18;;
35312;SDS011;21425;50.454;30.466;2023-12-14T05:09:27;18.17;;;8.15;;
35312;SDS011;21425;50.454;30.466;2023-12-14T05:11:55;20.23;;;8.48;;
35312;SDS011;21425;50.454;30.466;2023-12-14T05:14:21;18.73;;;7.93;;
35312;SDS011;21425;50.454;30.466;2023-12-14T05:16:46;17.63;;;8.07;;
35312;SDS011;21425;50.454;30.466;2023-12-14T05:19:12;14.90;;;7.68;;
35312;SDS011;21425;50.454;30.466;2023-12-14T05:21:38;19.45;;;8.68;;
35312;SDS011;21425;50.454;30.466;2023-12-14T05:24:04;16.40;;;9.20;;
35312;SDS011;21425;50.454;30.466;2023-12-14T05:26:30;14.70;;;7.97;;
35312;SDS011;21425;50.454;30.466;2023-12-14T05:28:56;22.48;;;9.80;;
35312;SDS011;21425;50.454;30.466;2023-12-14T05:31:22;23.02;;;10.15;;
35312;SDS011;21425;50.454;30.466;2023-12-14T05:33:48;18.10;;;8.80;;
35312;SDS011;21425;50.454;30.466;2023-12-14T05:36:13;19.65;;;9.02;;
35312;SDS011;21425;50.454;30.466;2023-12-14T05:38:40;21.27;;;10.55;;
35312;SDS011;21425;50.454;30.466;2023-12-14T05:41:06;21.60;;;9.57;;
35312;SDS011;21425;50.454;30.466;2023-12-14T05:43:32;20.25;;;9.20;;
35312;SDS011;21425;50.454;30.466;2023-12-14T05:45:58;21.52;;;10.57;;
35312;SDS011;21425;50.454;30.466;2023-12-14T05:48:24;20.88;;;9.90;;
35312;SDS011;21425;50.454;30.466;2023-12-14T05:50:51;21.83;;;11.05;;
35312;SDS011;21425;50.454;30.466;2023-12-14T05:53:17;20.13;;;10.45;;
35312;SDS011;21425;50.454;30.466;2023-12-14T05:55:43;21.88;;;10.10;;
35312;SDS011;21425;50.454;30.466;2023-12-14T05:58:08;21.13;;;9.85;;
35312;SDS011;21425;50.454;30.466;2023-12-14T06:00:34;24.73;;;10.05;;
35312;SDS011;21425;50.454;30.466;2023-12-14T06:03:01;24.38;;;10.73;;
35312;SDS011;21425;50.454;30.466;2023-12-14T06:05:27;20.95;;;10.15;;
35312;SDS011;21425;50.454;30.466;2023-12-14T06:07:53;21.83;;;9.77;;
35312;SDS011;21425;50.454;30.466;2023-12-14T06:10:19;23.23;;;10.32;;
35312;SDS011;21425;50.454;30.466;2023-12-14T06:12:46;23.55;;;10.57;;
35312;SDS011;21425;50.454;30.466;2023-12-14T06:15:12;19.85;;;9.38;;
35312;SDS011;21425;50.454;30.466;2023-12-14T06:17:38;25.63;;;10.68;;
35312;SDS011;21425;50.454;30.466;2023-12-14T06:20:06;27.73;;;11.73;;
35312;SDS011;21425;50.454;30.466;2023-12-14T06:22:38;28.42;;;12.18;;
35312;SDS011;21425;50.454;30.466;2023-12-14T06:25:04;25.88;;;10.52;;
35312;SDS011;21425;50.454;30.466;2023-12-14T06:27:30;24.60;;;10.38;;
35312;SDS011;21425;50.454;30.466;2023-12-14T06:29:56;24.13;;;9.65;;
35312;SDS011;21425;50.454;30.466;2023-12-14T06:32:22;26.60;;;11.35;;
35312;SDS011;21425;50.454;30.466;2023-12-14T06:34:48;23.20;;;10.98;;
35312;SDS011;21425;50.454;30.466;2023-12-14T06:37:13;27.02;;;10.40;;
35312;SDS011;21425;50.454;30.466;2023-12-14T06:39:43;23.20;;;11.05;;
35312;SDS011;21425;50.454;30.466;2023-12-14T06:42:09;24.10;;;10.52;;
35312;SDS011;21425;50.454;30.466;2023-12-14T06:44:35;21.73;;;10.82;;
35312;SDS011;21425;50.454;30.466;2023-12-14T06:47:01;21.80;;;11.07;;
35312;SDS011;21425;50.454;30.466;2023-12-14T06:49:27;25.15;;;11.13;;
35312;SDS011;21425;50.454;30.466;2023-12-14T06:51:53;24.00;;;11.85;;
35312;SDS011;21425;50.454;30.466;2023-12-14T06:54:18;24.48;;;11.98;;
35312;SDS011;21425;50.454;30.466;2023-12-14T06:56:44;24.80;;;11.15;;
35312;SDS011;21425;50.454;30.466;2023-12-14T06:59:10;27.00;;;12.30;;
35312;SDS011;21425;50.454;30.466;2023-12-14T07:01:36;21.88;;;10.63;;
35312;SDS011;21425;50.454;30.466;2023-12-14T07:04:02;22.65;;;10.02;;
35312;SDS011;21425;50.454;30.466;2023-12-14T07:06:28;27.73;;;11.15;;
35312;SDS011;21425;50.454;30.466;2023-12-14T07:08:55;20.25;;;10.05;;
35312;SDS011;21425;50.454;30.466;2023-12-14T07:11:21;21.30;;;10.15;;
35312;SDS011;21425;50.454;30.466;2023-12-14T07:13:46;20.33;;;9.73;;
35312;SDS011;21425;50.454;30.466;2023-12-14T07:16:12;24.75;;;11.15;;
35312;SDS011;21425;50.454;30.466;2023-12-14T07:18:40;19.52;;;9.38;;
35312;SDS011;21425;50.454;30.466;2023-12-14T07:21:06;20.63;;;9.68;;
35312;SDS011;21425;50.454;30.466;2023-12-14T07:23:33;19.75;;;9.82;;
35312;SDS011;21425;50.454;30.466;2023-12-14T07:25:59;20.52;;;9.25;;
35312;SDS011;21425;50.454;30.466;2023-12-14T07:28:25;20.08;;;9.55;;
35312;SDS011;21425;50.454;30.466;2023-12-14T07:30:52;24.67;;;10.10;;
35312;SDS011;21425;50.454;30.466;2023-12-14T07:33:17;19.02;;;9.10;;
35312;SDS011;21425;50.454;30.466;2023-12-14T07:35:43;20.77;;;9.82;;
35312;SDS011;21425;50.454;30.466;2023-12-14T07:38:09;20.70;;;9.48;;
35312;SDS011;21425;50.454;30.466;2023-12-14T07:40:35;13.30;;;7.45;;
35312;SDS011;21425;50.454;30.466;2023-12-14T07:43:01;20.17;;;8.25;;
35312;SDS011;21425;50.454;30.466;2023-12-14T07:45:27;15.48;;;8.10;;
35312;SDS011;21425;50.454;30.466;2023-12-14T07:47:53;17.42;;;8.18;;
35312;SDS011;21425;50.454;30.466;2023-12-14T07:50:19;12.70;;;6.28;;
35312;SDS011;21425;50.454;30.466;2023-12-14T07:52:46;10.88;;;6.47;;
35312;SDS011;21425;50.454;30.466;2023-12-14T07:55:12;14.43;;;6.20;;
35312;SDS011;21425;50.454;30.466;2023-12-14T07:57:40;11.35;;;5.93;;
35312;SDS011;21425;50.454;30.466;2023-12-14T08:00:07;8.73;;;4.55;;
35312;SDS011;21425;50.454;30.466;2023-12-14T08:02:36;14.25;;;5.13;;
35312;SDS011;21425;50.454;30.466;2023-12-14T08:05:02;9.80;;;4.63;;
35312;SDS011;21425;50.454;30.466;2023-12-14T08:07:28;9.95;;;4.97;;
35312;SDS011;21425;50.454;30.466;2023-12-14T08:09:57;9.32;;;4.57;;
35312;SDS011;21425;50.454;30.466;2023-12-14T08:12:24;9.70;;;4.38;;
35312;SDS011;21425;50.454;30.466;2023-12-14T08:14:50;10.30;;;4.03;;
35312;SDS011;21425;50.454;30.466;2023-12-14T08:17:16;11.73;;;4.28;;
35312;SDS011;21425;50.454;30.466;2023-12-14T08:19:42;7.80;;;3.67;;
35312;SDS011;21425;50.454;30.466;2023-12-14T08:22:08;7.85;;;3.58;;
35312;SDS011;21425;50.454;30.466;2023-12-14T08:24:37;7.00;;;3.92;;
35312;SDS011;21425;50.454;30.466;2023-12-14T08:27:05;10.07;;;3.53;;
35312;SDS011;21425;50.454;30.466;2023-12-14T08:29:31;6.20;;;3.00;;
35312;SDS011;21425;50.454;30.466;2023-12-14T08:31:57;8.77;;;3.40;;
35312;SDS011;21425;50.454;30.466;2023-12-14T08:34:24;6.25;;;3.20;;
35312;SDS011;21425;50.454;30.466;2023-12-14T08:36:50;5.50;;;2.70;;
35312;SDS011;21425;50.454;30.466;2023-12-14T08:39:16;6.38;;;2.88;;
35312;SDS011;21425;50.454;30.466;2023-12-14T08:41:43;6.60;;;3.50;;
35312;SDS011;21425;50.454;30.466;2023-12-14T08:44:10;5.35;;;3.13;;
35312;SDS011;21425;50.454;30.466;2023-12-14T08:46:39;6.90;;;3.50;;
35312;SDS011;21425;50.454;30.466;2023-12-14T08:49:06;8.85;;;3.40;;
35312;SDS011;21425;50.454;30.466;2023-12-14T08:51:32;8.65;;;3.15;;
35312;SDS011;21425;50.454;30.466;2023-12-14T08:53:58;5.60;;;2.67;;
35312;SDS011;21425;50.454;30.466;2023-12-14T08:56:23;7.78;;;3.63;;
35312;SDS011;21425;50.454;30.466;2023-12-14T08:58:50;5.20;;;2.88;;
35312;SDS011;21425;50.454;30.466;2023-12-14T09:01:20;6.25;;;3.42;;
35312;SDS011;21425;50.454;30.466;2023-12-14T09:03:47;7.28;;;4.00;;
35312;SDS011;21425;50.454;30.466;2023-12-14T09:06:13;5.10;;;2.72;;
35312;SDS011;21425;50.454;30.466;2023-12-14T09:08:40;8.35;;;3.00;;
35312;SDS011;21425;50.454;30.466;2023-12-14T09:11:06;7.78;;;3.35;;
35312;SDS011;21425;50.454;30.466;2023-12-14T09:13:32;7.93;;;3.50;;
35312;SDS011;21425;50.454;30.466;2023-12-14T09:15:58;5.03;;;2.83;;
35312;SDS011;21425;50.454;30.466;2023-12-14T09:18:24;7.30;;;2.80;;
35312;SDS011;21425;50.454;30.466;2023-12-14T09:20:49;4.55;;;2.60;;
35312;SDS011;21425;50.454;30.466;2023-12-14T09:23:16;7.45;;;3.30;;
35312;SDS011;21425;50.454;30.466;2023-12-14T09:25:42;6.15;;;2.83;;
35312;SDS011;21425;50.454;30.466;2023-12-14T09:28:08;7.90;;;2.72;;
35312;SDS011;21425;50.454;30.466;2023-12-14T09:30:33;5.00;;;2.88;;
35312;SDS011;21425;50.454;30.466;2023-12-14T09:32:59;11.27;;;3.05;;
35312;SDS011;21425;50.454;30.466;2023-12-14T09:35:25;7.90;;;3.03;;
35312;SDS011;21425;50.454;30.466;2023-12-14T09:37:51;6.28;;;2.78;;
35312;SDS011;21425;50.454;30.466;2023-12-14T09:40:18;5.00;;;2.70;;
35312;SDS011;21425;50.454;30.466;2023-12-14T09:42:47;7.85;;;3.03;;
35312;SDS011;21425;50.454;30.466;2023-12-14T09:45:12;4.32;;;2.30;;
35312;SDS011;21425;50.454;30.466;2023-12-14T09:47:39;9.38;;;2.55;;
35312;SDS011;21425;50.454;30.466;2023-12-14T09:50:06;5.50;;;3.05;;
35312;SDS011;21425;50.454;30.466;2023-12-14T09:52:33;5.50;;;2.90;;
35312;SDS011;21425;50.454;30.466;2023-12-14T09:54:59;6.47;;;3.63;;
35312;SDS011;21425;50.454;30.466;2023-12-14T09:57:25;7.53;;;3.40;;
35312;SDS011;21425;50.454;30.466;2023-12-14T09:59:52;6.97;;;2.95;;
35312;SDS011;21425;50.454;30.466;2023-12-14T10:02:18;5.20;;;2.88;;
35312;SDS011;21425;50.454;30.466;2023-12-14T10:04:45;6.95;;;3.50;;
35312;SDS011;21425;50.454;30.466;2023-12-14T10:07:12;8.73;;;3.80;;
35312;SDS011;21425;50.454;30.466;2023-12-14T10:09:38;5.60;;;3.13;;
35312;SDS011;21425;50.454;30.466;2023-12-14T10:12:05;7.28;;;3.30;;
35312;SDS011;21425;50.454;30.466;2023-12-14T10:14:32;6.10;;;3.47;;
35312;SDS011;21425;50.454;30.466;2023-12-14T10:16:58;5.93;;;3.20;;
35312;SDS011;21425;50.454;30.466;2023-12-14T10:19:25;6.47;;;2.58;;
35312;SDS011;21425;50.454;30.466;2023-12-14T10:21:51;7.10;;;3.03;;
35312;SDS011;21425;50.454;30.466;2023-12-14T10:24:18;8.05;;;4.70;;
35312;SDS011;21425;50.454;30.466;2023-12-14T10:26:45;9.85;;;4.70;;
35312;SDS011;21425;50.454;30.466;2023-12-14T10:29:11;5.70;;;3.60;;
35312;SDS011;21425;50.454;30.466;2023-12-14T10:31:37;9.10;;;4.18;;
35312;SDS011;21425;50.454;30.466;2023-12-14T10:34:04;11.02;;;5.05;;
35312;SDS011;21425;50.454;30.466;2023-12-14T10:36:31;11.65;;;4.75;;
35312;SDS011;21425;50.454;30.466;2023-12-14T10:38:58;8.23;;;4.20;;
35312;SDS011;21425;50.454;30.466;2023-12-14T10:41:25;10.98;;;4.50;;
35312;SDS011;21425;50.454;30.466;2023-12-14T10:43:53;10.13;;;4.63;;
35312;SDS011;21425;50.454;30.466;2023-12-14T10:46:20;14.77;;;5.15;;
35312;SDS011;21425;50.454;30.466;2023-12-14T10:48:50;10.13;;;4.57;;
35312;SDS011;21425;50.454;30.466;2023-12-14T10:51:20;12.00;;;5.20;;
35312;SDS011;21425;50.454;30.466;2023-12-14T10:53:47;12.57;;;5.40;;
35312;SDS011;21425;50.454;30.466;2023-12-14T10:56:14;11.48;;;5.00;;
35312;SDS011;21425;50.454;30.466;2023-12-14T10:58:54;13.65;;;5.28;;
35312;SDS011;21425;50.454;30.466;2023-12-14T11:01:21;13.00;;;5.40;;
35312;SDS011;21425;50.454;30.466;2023-12-14T11:03:50;11.07;;;5.03;;
35312;SDS011;21425;50.454;30.466;2023-12-14T11:08:58;11.25;;;5.47;;
35312;SDS011;21425;50.454;30.466;2023-12-14T11:11:27;11.20;;;4.57;;
35312;SDS011;21425;50.454;30.466;2023-12-14T11:13:54;9.65;;;5.22;;
35312;SDS011;21425;50.454;30.466;2023-12-14T11:16:21;7.82;;;4.30;;
35312;SDS011;21425;50.454;30.466;2023-12-14T11:18:47;10.38;;;4.65;;
35312;SDS011;21425;50.454;30.466;2023-12-14T11:21:19;13.02;;;4.88;;
35312;SDS011;21425;50.454;30.466;2023-12-14T11:23:47;11.57;;;5.43;;
35312;SDS011;21425;50.454;30.466;2023-12-14T11:26:20;10.02;;;5.22;;
35312;SDS011;21425;50.454;30.466;2023-12-14T11:28:47;9.40;;;5.03;;
35312;SDS011;21425;50.454;30.466;2023-12-14T11:31:13;9.70;;;5.05;;
35312;SDS011;21425;50.454;30.466;2023-12-14T11:33:39;14.52;;;5.22;;
35312;SDS011;21425;50.454;30.466;2023-12-14T11:36:05;10.65;;;5.05;;
35312;SDS011;21425;50.454;30.466;2023-12-14T11:38:33;12.00;;;5.70;;
35312;SDS011;21425;50.454;30.466;2023-12-14T11:41:00;13.40;;;6.10;;
35312;SDS011;21425;50.454;30.466;2023-12-14T11:43:26;9.95;;;6.20;;
35312;SDS011;21425;50.454;30.466;2023-12-14T11:45:52;13.48;;;6.55;;
35312;SDS011;21425;50.454;30.466;2023-12-14T11:48:20;11.68;;;6.43;;
35312;SDS011;21425;50.454;30.466;2023-12-14T11:50:46;12.50;;;7.40;;
35312;SDS011;21425;50.454;30.466;2023-12-14T11:53:12;12.63;;;6.53;;
35312;SDS011;21425;50.454;30.466;2023-12-14T11:55:39;13.35;;;6.75;;
35312;SDS011;21425;50.454;30.466;2023-12-14T11:58:06;13.70;;;7.03;;
35312;SDS011;21425;50.454;30.466;2023-12-14T12:00:33;14.68;;;6.75;;
35312;SDS011;21425;50.454;30.466;2023-12-14T12:05:44;13.10;;;6.50;;
35312;SDS011;21425;50.454;30.466;2023-12-14T12:08:11;13.40;;;6.80;;
35312;SDS011;21425;50.454;30.466;2023-12-14T12:10:38;14.63;;;7.43;;
35312;SDS011;21425;50.454;30.466;2023-12-14T12:13:06;18.70;;;8.10;;
35312;SDS011;21425;50.454;30.466;2023-12-14T12:15:33;15.85;;;8.80;;
35312;SDS011;21425;50.454;30.466;2023-12-14T12:18:08;17.55;;;8.45;;
35312;SDS011;21425;50.454;30.466;2023-12-14T12:20:38;15.07;;;7.82;;
35312;SDS011;21425;50.454;30.466;2023-12-14T12:23:04;15.02;;;7.88;;
35312;SDS011;21425;50.454;30.466;2023-12-14T12:25:30;17.77;;;8.23;;
35312;SDS011;21425;50.454;30.466;2023-12-14T12:27:57;16.80;;;7.93;;
35312;SDS011;21425;50.454;30.466;2023-12-14T12:30:23;19.58;;;7.80;;
35312;SDS011;21425;50.454;30.466;2023-12-14T12:32:49;15.63;;;7.68;;
35312;SDS011;21425;50.454;30.466;2023-12-14T12:35:18;18.20;;;8.88;;
35312;SDS011;21425;50.454;30.466;2023-12-14T12:37:45;14.88;;;7.75;;
35312;SDS011;21425;50.454;30.466;2023-12-14T12:40:11;20.50;;;8.40;;
35312;SDS011;21425;50.454;30.466;2023-12-14T12:42:38;19.40;;;8.23;;
35312;SDS011;21425;50.454;30.466;2023-12-14T12:45:05;16.75;;;8.50;;
35312;SDS011;21425;50.454;30.466;2023-12-14T12:47:31;18.75;;;8.65;;
35312;SDS011;21425;50.454;30.466;2023-12-14T12:49:57;20.77;;;8.95;;
35312;SDS011;21425;50.454;30.466;2023-12-14T12:52:22;20.48;;;9.40;;
35312;SDS011;21425;50.454;30.466;2023-12-14T12:54:48;29.38;;;11.85;;
35312;SDS011;21425;50.454;30.466;2023-12-14T12:57:14;43.92;;;14.45;;
35312;SDS011;21425;50.454;30.466;2023-12-14T12:59:40;43.63;;;15.38;;
35312;SDS011;21425;50.454;30.466;2023-12-14T13:02:06;39.55;;;15.65;;
35312;SDS011;21425;50.454;30.466;2023-12-14T13:04:32;48.92;;;16.27;;
35312;SDS011;21425;50.454;30.466;2023-12-14T13:06:58;30.92;;;14.05;;
35312;SDS011;21425;50.454;30.466;2023-12-14T13:09:27;39.67;;;16.13;;
35312;SDS011;21425;50.454;30.466;2023-12-14T13:11:53;46.85;;;16.40;;
35312;SDS011;21425;50.454;30.466;2023-12-14T13:14:19;46.22;;;17.45;;
35312;SDS011;21425;50.454;30.466;2023-12-14T13:16:45;41.75;;;17.05;;
35312;SDS011;21425;50.454;30.466;2023-12-14T13:19:13;212.77;;;32.67;;
35312;SDS011;21425;50.454;30.466;2023-12-14T13:21:39;147.27;;;38.45;;
35312;SDS011;21425;50.454;30.466;2023-12-14T13:24:05;87.07;;;31.45;;
35312;SDS011;21425;50.454;30.466;2023-12-14T13:26:30;135.55;;;36.28;;
35312;SDS011;21425;50.454;30.466;2023-12-14T13:28:56;66.82;;;27.10;;
35312;SDS011;21425;50.454;30.466;2023-12-14T13:31:22;65.20;;;27.23;;
35312;SDS011;21425;50.454;30.466;2023-12-14T13:33:49;107.75;;;28.08;;
35312;SDS011;21425;50.454;30.466;2023-12-14T13:36:15;124.50;;;30.55;;
35312;SDS011;21425;50.454;30.466;2023-12-14T13:38:41;121.65;;;29.73;;
35312;SDS011;21425;50.454;30.466;2023-12-14T13:41:08;132.80;;;29.63;;
35312;SDS011;21425;50.454;30.466;2023-12-14T13:43:33;86.70;;;23.58;;
35312;SDS011;21425;50.454;30.466;2023-12-14T13:46:00;69.88;;;22.25;;
35312;SDS011;21425;50.454;30.466;2023-12-14T13:48:25;120.68;;;28.90;;
35312;SDS011;21425;50.454;30.466;2023-12-14T13:50:52;211.05;;;36.97;;
35312;SDS011;21425;50.454;30.466;2023-12-14T13:53:19;138.05;;;34.38;;
35312;SDS011;21425;50.454;30.466;2023-12-14T13:55:45;125.53;;;33.95;;
35312;SDS011;21425;50.454;30.466;2023-12-14T13:58:11;215.55;;;40.85;;
35312;SDS011;21425;50.454;30.466;2023-12-14T14:00:38;149.65;;;32.10;;
35312;SDS011;21425;50.454;30.466;2023-12-14T14:03:04;153.48;;;31.90;;
35312;SDS011;21425;50.454;30.466;2023-12-14T14:05:30;147.02;;;36.15;;
35312;SDS011;21425;50.454;30.466;2023-12-14T14:07:57;158.13;;;33.70;;
35312;SDS011;21425;50.454;30.466;2023-12-14T14:10:23;127.88;;;33.45;;
35312;SDS011;21425;50.454;30.466;2023-12-14T14:12:49;138.57;;;34.95;;
35312;SDS011;21425;50.454;30.466;2023-12-14T14:15:15;198.15;;;32.83;;
35312;SDS011;21425;50.454;30.466;2023-12-14T14:17:41;157.00;;;37.45;;
35312;SDS011;21425;50.454;30.466;2023-12-14T14:20:07;161.55;;;36.38;;
35312;SDS011;21425;50.454;30.466;2023-12-14T14:22:34;197.20;;;43.53;;